createdAt,value
2023-05-18T00:00:18.801Z,97661.29
2023-05-18T00:02:47.835Z,97658.48
2023-05-18T00:05:17.451Z,97661.40
2023-05-18T00:07:45.875Z,97661.46
2023-05-18T00:10:12.769Z,97664.02
2023-05-18T00:12:39.465Z,97660.75
2023-05-18T00:15:06.850Z,97652.13
2023-05-18T00:17:33.786Z,97651.20
2023-05-18T00:20:00.833Z,97652.80
2023-05-18T00:22:27.569Z,97649.57
2023-05-18T00:24:54.332Z,97646.33
2023-05-18T00:27:21.071Z,97641.34
2023-05-18T00:29:47.975Z,97642.49
2023-05-18T00:32:14.824Z,97650.67
2023-05-18T00:34:41.761Z,97651.04
2023-05-18T00:37:08.584Z,97652.95
2023-05-18T00:39:35.301Z,97655.71
2023-05-18T00:42:03.087Z,97659.27
2023-05-18T00:44:30.079Z,97662.98
2023-05-18T00:46:56.935Z,97661.29
2023-05-18T00:49:23.667Z,97667.35
2023-05-18T00:51:50.725Z,97675.48
2023-05-18T00:54:18.823Z,97684.87
2023-05-18T00:56:46.179Z,97688.06
2023-05-18T00:59:13.319Z,97690.53
2023-05-18T01:01:43.175Z,97688.67
2023-05-18T01:04:13.531Z,97685.80
2023-05-18T01:06:41.670Z,97686.19
2023-05-18T01:09:11.664Z,97685.30
2023-05-18T01:11:57.030Z,97686.20
2023-05-18T01:14:39.052Z,97691.29
2023-05-18T01:17:43.095Z,97700.65
2023-05-18T01:20:24.087Z,97706.10
2023-05-18T01:23:33.267Z,97711.23
2023-05-18T01:26:36.952Z,97719.69
2023-05-18T01:29:06.028Z,97721.12
2023-05-18T01:31:33.353Z,97720.59
2023-05-18T01:34:02.547Z,97726.35
2023-05-18T01:36:30.988Z,97729.80
2023-05-18T01:39:00.984Z,97731.27
2023-05-18T01:41:28.895Z,97729.85
2023-05-18T01:44:08.576Z,97733.16
2023-05-18T01:47:01.299Z,97729.90
2023-05-18T01:49:40.043Z,97726.20
2023-05-18T01:52:09.020Z,97731.80
2023-05-18T01:54:36.873Z,97733.92
2023-05-18T01:57:06.625Z,97737.02
2023-05-18T01:59:34.142Z,97739.15
2023-05-18T02:02:01.045Z,97738.04
2023-05-18T02:04:28.072Z,97744.48
2023-05-18T02:06:55.417Z,97747.45
2023-05-18T02:09:22.592Z,97747.66
2023-05-18T02:11:50.620Z,97751.20
2023-05-18T02:14:17.627Z,97755.54
2023-05-18T02:16:52.196Z,97755.95
2023-05-18T02:19:21.555Z,97760.02
2023-05-18T02:21:48.464Z,97756.23
2023-05-18T02:24:17.311Z,97757.46
2023-05-18T02:26:44.104Z,97760.10
2023-05-18T02:29:13.885Z,97757.02
2023-05-18T02:31:41.204Z,97763.84
2023-05-18T02:34:08.574Z,97767.64
2023-05-18T02:36:42.218Z,97770.02
2023-05-18T02:39:10.063Z,97773.80
2023-05-18T02:41:37.150Z,97774.91
2023-05-18T02:44:04.484Z,97780.40
2023-05-18T02:46:32.040Z,97780.17
2023-05-18T02:48:58.987Z,97782.35
2023-05-18T02:51:26.056Z,97786.10
2023-05-18T02:53:53.828Z,97791.77
2023-05-18T02:56:21.296Z,97795.84
2023-05-18T02:58:58.011Z,97798.85
2023-05-18T03:01:30.114Z,97793.63
2023-05-18T03:03:57.023Z,97798.27
2023-05-18T03:06:25.887Z,97796.58
2023-05-18T03:08:56.698Z,97798.22
2023-05-18T03:11:29.502Z,97798.48
2023-05-18T03:13:56.445Z,97798.73
2023-05-18T03:16:27.796Z,97802.11
2023-05-18T03:18:55.289Z,97806.23
2023-05-18T03:21:22.656Z,97806.71
2023-05-18T03:23:49.528Z,97809.30
2023-05-18T03:26:17.575Z,97813.10
2023-05-18T03:28:44.566Z,97815.21
2023-05-18T03:31:12.297Z,97817.95
2023-05-18T03:33:39.075Z,97819.93
2023-05-18T03:36:08.521Z,97826.63
2023-05-18T03:38:35.365Z,97831.99
2023-05-18T03:41:05.261Z,97833.30
2023-05-18T03:43:32.774Z,97831.73
2023-05-18T03:46:00.815Z,97833.11
2023-05-18T03:48:27.902Z,97841.39
2023-05-18T03:50:55.001Z,97842.53
2023-05-18T03:53:22.709Z,97847.23
2023-05-18T03:55:51.019Z,97845.64
2023-05-18T03:58:20.658Z,97847.35
2023-05-18T04:00:48.824Z,97851.02
2023-05-18T04:03:17.276Z,97851.34
2023-05-18T04:05:44.277Z,97851.69
2023-05-18T04:08:13.870Z,97852.26
2023-05-18T04:10:42.592Z,97855.05
2023-05-18T04:13:09.385Z,97853.80
2023-05-18T04:15:37.458Z,97854.27
2023-05-18T04:18:04.313Z,97854.91
2023-05-18T04:20:31.610Z,97851.25
2023-05-18T04:22:58.408Z,97857.05
2023-05-18T04:25:28.266Z,97865.75
2023-05-18T04:27:55.739Z,97871.77
2023-05-18T04:30:26.246Z,97879.44
2023-05-18T04:32:54.182Z,97885.71
2023-05-18T04:35:21.193Z,97884.40
2023-05-18T04:37:48.173Z,97889.23
2023-05-18T04:40:17.728Z,97894.76
2023-05-18T04:42:46.973Z,97894.16
2023-05-18T04:45:22.295Z,97899.95
2023-05-18T04:47:53.029Z,97903.60
2023-05-18T04:50:20.974Z,97907.56
2023-05-18T04:52:48.181Z,97911.15
2023-05-18T04:55:22.401Z,97911.02
2023-05-18T04:57:50.195Z,97913.13
2023-05-18T05:00:18.025Z,97916.71
2023-05-18T05:02:45.792Z,97920.09
2023-05-18T05:05:13.037Z,97918.57
2023-05-18T05:07:40.182Z,97918.20
2023-05-18T05:10:09.172Z,97919.02
2023-05-18T05:12:37.409Z,97918.23
2023-05-18T05:15:06.438Z,97924.74
2023-05-18T05:17:33.627Z,97926.73
2023-05-18T05:20:00.505Z,97929.20
2023-05-18T05:22:28.261Z,97932.05
2023-05-18T05:24:55.263Z,97935.08
2023-05-18T05:27:25.610Z,97941.02
2023-05-18T05:29:52.446Z,97944.21
2023-05-18T05:32:19.156Z,97949.02
2023-05-18T05:34:47.471Z,97949.67
2023-05-18T05:37:15.754Z,97952.48
2023-05-18T05:39:42.489Z,97951.36
2023-05-18T05:42:09.753Z,97954.09
2023-05-18T05:44:38.757Z,97953.73
2023-05-18T05:47:06.733Z,97951.27
2023-05-18T05:49:34.267Z,97952.79
2023-05-18T05:52:02.601Z,97953.27
2023-05-18T05:54:29.853Z,97955.95
2023-05-18T05:56:56.950Z,97957.54
2023-05-18T05:59:24.167Z,97957.84
2023-05-18T06:01:50.990Z,97960.88
2023-05-18T06:04:17.962Z,97966.00
2023-05-18T06:06:44.926Z,97975.09
2023-05-18T06:09:12.331Z,97978.08
2023-05-18T06:11:39.044Z,97982.18
2023-05-18T06:14:06.104Z,97982.16
2023-05-18T06:16:34.492Z,97981.35
2023-05-18T06:19:01.349Z,97986.36
2023-05-18T06:21:29.263Z,97996.68
2023-05-18T06:23:56.752Z,97996.21
2023-05-18T06:26:46.244Z,98001.56
2023-05-18T06:29:36.463Z,98003.84
2023-05-18T06:32:20.637Z,98007.76
2023-05-18T06:34:53.267Z,98006.46
2023-05-18T06:37:21.332Z,98008.58
2023-05-18T06:39:48.218Z,98012.40
2023-05-18T06:42:15.052Z,98005.04
2023-05-18T06:44:50.842Z,98006.86
2023-05-18T06:47:19.217Z,98009.55
2023-05-18T06:49:47.079Z,98008.90
2023-05-18T06:52:14.759Z,98011.35
2023-05-18T06:54:43.085Z,98016.95
2023-05-18T06:57:10.287Z,98017.06
2023-05-18T06:59:37.991Z,98020.60
2023-05-18T07:02:05.532Z,98019.77
2023-05-18T07:04:32.458Z,98023.63
2023-05-18T07:06:59.372Z,98025.75
2023-05-18T07:09:26.122Z,98028.03
2023-05-18T07:11:53.499Z,98026.94
2023-05-18T07:14:20.351Z,98029.30
2023-05-18T07:16:47.541Z,98029.09
2023-05-18T07:19:14.431Z,98032.39
2023-05-18T07:21:41.655Z,98030.34
2023-05-18T07:24:08.469Z,98032.02
2023-05-18T07:26:35.299Z,98033.95
2023-05-18T07:29:02.058Z,98037.14
2023-05-18T07:31:29.081Z,98046.35
2023-05-18T07:33:56.729Z,98053.67
2023-05-18T07:36:24.983Z,98053.59
2023-05-18T07:38:56.105Z,98057.47
2023-05-18T07:41:23.114Z,98059.40
2023-05-18T07:43:50.571Z,98062.58
2023-05-18T07:46:18.002Z,98068.27
2023-05-18T07:48:44.754Z,98067.38
2023-05-18T07:51:11.898Z,98067.92
2023-05-18T07:53:40.293Z,98068.36
2023-05-18T07:56:07.986Z,98068.95
2023-05-18T07:58:35.546Z,98071.02
2023-05-18T08:01:02.282Z,98071.27
2023-05-18T08:03:29.156Z,98074.88
2023-05-18T08:05:56.337Z,98077.95
2023-05-18T08:08:23.885Z,98081.16
2023-05-18T08:10:51.845Z,98083.08
2023-05-18T08:13:18.599Z,98086.25
2023-05-18T08:15:49.007Z,98091.80
2023-05-18T08:18:21.919Z,98096.25
2023-05-18T08:20:48.996Z,98099.20
2023-05-18T08:23:15.579Z,98101.44
2023-05-18T08:25:42.197Z,98105.95
2023-05-18T08:28:08.927Z,98103.97
2023-05-18T08:30:36.252Z,98098.23
2023-05-18T08:33:03.421Z,98094.01
2023-05-18T08:35:32.465Z,98093.02
2023-05-18T08:37:59.956Z,98090.37
2023-05-18T08:40:32.550Z,98091.59
2023-05-18T08:43:07.582Z,98095.71
2023-05-18T08:45:46.430Z,98095.05
2023-05-18T08:48:13.456Z,98097.39
2023-05-18T08:50:41.278Z,98101.84
2023-05-18T08:53:09.224Z,98103.24
2023-05-18T08:55:36.542Z,98103.75
2023-05-18T08:58:04.421Z,98103.91
2023-05-18T09:00:32.260Z,98102.42
2023-05-18T09:03:00.372Z,98104.75
2023-05-18T09:05:27.185Z,98104.30
2023-05-18T09:07:54.357Z,98104.49
2023-05-18T09:10:21.347Z,98103.64
2023-05-18T09:12:48.180Z,98105.19
2023-05-18T09:15:15.522Z,98102.96
2023-05-18T09:17:42.694Z,98103.56
2023-05-18T09:20:09.742Z,98105.36
2023-05-18T09:22:39.658Z,98110.02
2023-05-18T09:25:10.152Z,98109.12
2023-05-18T09:27:37.721Z,98110.73
2023-05-18T09:30:07.197Z,98114.80
2023-05-18T09:32:35.687Z,98111.08
2023-05-18T09:35:06.397Z,98113.95
2023-05-18T09:37:33.554Z,98117.69
2023-05-18T09:40:01.584Z,98120.47
2023-05-18T09:42:42.528Z,98123.89
2023-05-18T09:45:19.293Z,98126.17
2023-05-18T09:47:46.330Z,98130.48
2023-05-18T09:50:12.996Z,98126.45
2023-05-18T09:52:44.140Z,98125.31
2023-05-18T09:57:02.338Z,98127.20
2023-05-18T09:59:37.426Z,98126.46
2023-05-18T10:02:09.937Z,98126.58
2023-05-18T10:04:43.482Z,98128.39
2023-05-18T10:07:12.568Z,98124.63
2023-05-18T10:09:41.134Z,98128.70
2023-05-18T10:12:15.844Z,98132.20
2023-05-18T10:14:44.216Z,98130.30
2023-05-18T10:17:16.790Z,98129.46
2023-05-18T10:19:44.974Z,98127.02
2023-05-18T10:22:11.866Z,98129.45
2023-05-18T10:24:39.420Z,98131.91
2023-05-18T10:27:08.024Z,98134.68
2023-05-18T10:29:38.328Z,98133.17
2023-05-18T10:32:07.731Z,98135.27
2023-05-18T10:34:34.937Z,98138.75
2023-05-18T10:37:04.286Z,98135.64
2023-05-18T10:39:31.976Z,98131.75
2023-05-18T10:41:58.782Z,98135.13
2023-05-18T10:44:25.938Z,98135.13
2023-05-18T10:46:53.461Z,98137.63
2023-05-18T10:49:23.768Z,98141.95
2023-05-18T10:51:52.857Z,98148.94
2023-05-18T10:54:19.750Z,98152.31
2023-05-18T10:56:50.555Z,98155.77
2023-05-18T10:59:18.700Z,98155.05
2023-05-18T11:01:46.520Z,98156.06
2023-05-18T11:04:13.453Z,98155.33
2023-05-18T11:06:41.135Z,98158.31
2023-05-18T11:09:08.054Z,98155.71
2023-05-18T11:11:55.967Z,98159.06
2023-05-18T11:14:27.550Z,98156.50
2023-05-18T11:16:56.184Z,98154.27
2023-05-18T11:19:29.140Z,98154.98
2023-05-18T11:21:56.056Z,98155.55
2023-05-18T11:24:23.840Z,98152.39
2023-05-18T11:26:54.500Z,98154.38
2023-05-18T11:29:57.693Z,98153.83
2023-05-18T11:32:36.538Z,98153.72
2023-05-18T11:35:08.895Z,98152.50
2023-05-18T11:37:38.926Z,98152.70
2023-05-18T11:40:09.361Z,98152.35
2023-05-18T11:42:37.911Z,98152.92
2023-05-18T11:45:08.570Z,98151.23
2023-05-18T11:47:40.649Z,98151.48
2023-05-18T11:50:11.848Z,98154.30
2023-05-18T11:52:47.049Z,98157.11
2023-05-18T11:55:16.539Z,98162.54
2023-05-18T11:57:45.643Z,98169.48
2023-05-18T12:00:13.960Z,98173.04
2023-05-18T12:02:45.692Z,98167.88
2023-05-18T12:05:13.818Z,98166.70
2023-05-18T12:07:40.938Z,98168.02
2023-05-18T12:10:09.949Z,98177.51
2023-05-18T12:12:37.054Z,98178.34
2023-05-18T12:15:06.405Z,98181.63
2023-05-18T12:17:40.743Z,98184.06
2023-05-18T12:20:12.349Z,98181.70
2023-05-18T12:22:40.187Z,98186.29
2023-05-18T12:25:08.146Z,98184.36
2023-05-18T12:27:43.978Z,98186.42
2023-05-18T12:30:21.087Z,98187.35
2023-05-18T12:32:52.699Z,98186.15
2023-05-18T12:35:26.378Z,98191.14
2023-05-18T12:37:55.668Z,98189.15
2023-05-18T12:40:22.824Z,98191.38
2023-05-18T12:42:54.044Z,98191.30
2023-05-18T12:45:23.248Z,98191.52
2023-05-18T12:47:54.793Z,98189.98
2023-05-18T12:50:22.816Z,98188.01
2023-05-18T12:52:50.104Z,98189.89
2023-05-18T12:55:25.266Z,98193.78
2023-05-18T12:58:21.002Z,98193.02
2023-05-18T13:00:48.319Z,98191.95
2023-05-18T13:03:20.504Z,98193.34
2023-05-18T13:06:06.323Z,98191.73
2023-05-18T13:08:34.062Z,98194.52
2023-05-18T13:11:12.900Z,98192.65
2023-05-18T13:14:04.709Z,98189.91
2023-05-18T13:16:35.270Z,98199.00
2023-05-18T13:19:03.860Z,98200.70
2023-05-18T13:21:30.991Z,98203.34
2023-05-18T13:23:57.838Z,98203.50
2023-05-18T13:26:25.032Z,98203.80
2023-05-18T13:28:52.998Z,98205.52
2023-05-18T13:31:19.814Z,98203.83
2023-05-18T13:33:47.157Z,98206.02
2023-05-18T13:36:14.172Z,98206.25
2023-05-18T13:38:41.625Z,98212.80
2023-05-18T13:41:10.224Z,98214.85
2023-05-18T13:43:37.141Z,98216.90
2023-05-18T13:46:04.019Z,98222.43
2023-05-18T13:48:31.113Z,98227.70
2023-05-18T13:50:57.949Z,98227.78
2023-05-18T13:53:26.223Z,98221.22
2023-05-18T13:55:53.008Z,98224.95
2023-05-18T13:58:19.854Z,98223.58
2023-05-18T14:00:46.879Z,98227.75
2023-05-18T14:03:15.544Z,98229.02
2023-05-18T14:05:42.956Z,98227.77
2023-05-18T14:08:09.781Z,98229.59
2023-05-18T14:10:36.830Z,98234.23
2023-05-18T14:13:03.633Z,98231.08
2023-05-18T14:15:30.596Z,98228.62
2023-05-18T14:17:57.528Z,98227.33
2023-05-18T14:20:24.404Z,98231.30
2023-05-18T14:22:51.378Z,98230.44
2023-05-18T14:25:18.424Z,98233.50
2023-05-18T14:27:45.254Z,98235.29
2023-05-18T14:30:12.277Z,98233.81
2023-05-18T14:32:39.303Z,98231.02
2023-05-18T14:35:07.128Z,98227.49
2023-05-18T14:37:34.286Z,98221.44
2023-05-18T14:40:01.100Z,98218.55
2023-05-18T14:42:27.933Z,98214.46
2023-05-18T14:44:54.883Z,98212.89
2023-05-18T14:47:22.642Z,98213.29
2023-05-18T14:49:49.454Z,98212.20
2023-05-18T14:52:16.289Z,98213.08
2023-05-18T14:54:43.082Z,98217.70
2023-05-18T14:57:10.011Z,98214.63
2023-05-18T14:59:37.112Z,98216.80
2023-05-18T15:02:04.155Z,98212.40
2023-05-18T15:04:31.072Z,98210.84
2023-05-18T15:06:57.936Z,98212.30
2023-05-18T15:09:26.722Z,98210.15
2023-05-18T15:11:54.087Z,98217.46
2023-05-18T15:14:21.120Z,98220.02
2023-05-18T15:16:48.108Z,98220.96
2023-05-18T15:19:15.165Z,98220.52
2023-05-18T15:21:44.475Z,98219.88
2023-05-18T15:24:11.423Z,98221.41
2023-05-18T15:26:38.217Z,98229.51
2023-05-18T15:29:05.122Z,98232.16
2023-05-18T15:31:33.190Z,98236.65
2023-05-18T15:34:00.514Z,98233.33
2023-05-18T15:36:27.322Z,98226.30
2023-05-18T15:38:54.330Z,98226.02
2023-05-18T15:41:22.188Z,98232.40
2023-05-18T15:43:49.190Z,98238.96
2023-05-18T15:46:16.309Z,98242.70
2023-05-18T15:48:43.609Z,98244.63
2023-05-18T15:51:10.739Z,98239.46
2023-05-18T15:53:37.639Z,98237.98
2023-05-18T15:56:04.666Z,98239.90
2023-05-18T15:58:31.423Z,98242.85
2023-05-18T16:00:58.247Z,98247.01
2023-05-18T16:03:25.152Z,98253.92
2023-05-18T16:05:52.116Z,98260.16
2023-05-18T16:08:20.583Z,98259.25
2023-05-18T16:10:47.399Z,98259.09
2023-05-18T16:13:14.821Z,98257.01
2023-05-18T16:15:41.772Z,98256.28
2023-05-18T16:18:08.716Z,98260.42
2023-05-18T16:20:35.743Z,98261.53
2023-05-18T16:23:02.638Z,98267.34
2023-05-18T16:25:29.548Z,98269.22
2023-05-18T16:27:56.533Z,98270.73
2023-05-18T16:30:23.413Z,98263.63
2023-05-18T16:32:50.325Z,98257.47
2023-05-18T16:35:17.229Z,98250.91
2023-05-18T16:37:44.084Z,98249.14
2023-05-18T16:40:11.562Z,98252.06
2023-05-18T16:42:38.526Z,98253.41
2023-05-18T16:45:05.565Z,98248.47
2023-05-18T16:47:32.882Z,98252.92
2023-05-18T16:50:00.481Z,98266.15
2023-05-18T16:52:28.520Z,98266.92
2023-05-18T16:54:55.582Z,98270.95
2023-05-18T16:57:22.499Z,98276.88
2023-05-18T16:59:49.659Z,98279.05
2023-05-18T17:02:18.049Z,98287.67
2023-05-18T17:04:49.718Z,98285.61
2023-05-18T17:07:16.892Z,98285.63
2023-05-18T17:09:44.112Z,98286.20
2023-05-18T17:12:11.456Z,98286.23
2023-05-18T17:14:38.443Z,98290.06
2023-05-18T17:17:05.955Z,98291.58
2023-05-18T17:19:35.141Z,98291.49
2023-05-18T17:22:03.515Z,98294.06
2023-05-18T17:24:30.919Z,98303.81
2023-05-18T17:26:58.114Z,98299.63
2023-05-18T17:29:25.435Z,98299.27
2023-05-18T17:31:52.205Z,98304.82
2023-05-18T17:34:19.121Z,98311.59
2023-05-18T17:36:45.906Z,98315.09
2023-05-18T17:39:13.308Z,98313.67
2023-05-18T17:41:40.122Z,98316.66
2023-05-18T17:44:07.158Z,98320.30
2023-05-18T17:46:34.146Z,98322.93
2023-05-18T17:49:05.027Z,98322.42
2023-05-18T17:51:31.997Z,98318.39
2023-05-18T17:53:58.918Z,98320.95
2023-05-18T17:56:28.275Z,98325.52
2023-05-18T17:58:55.518Z,98329.01
2023-05-18T18:01:22.513Z,98320.36
2023-05-18T18:03:49.628Z,98324.03
2023-05-18T18:06:22.381Z,98328.29
2023-05-18T18:08:50.505Z,98334.11
2023-05-18T18:11:17.516Z,98335.30
2023-05-18T18:13:44.317Z,98339.30
2023-05-18T18:16:11.410Z,98336.84
2023-05-18T18:18:39.287Z,98336.45
2023-05-18T18:21:06.847Z,98345.05
2023-05-18T18:23:34.708Z,98347.52
2023-05-18T18:26:01.633Z,98344.82
2023-05-18T18:28:29.457Z,98349.28
2023-05-18T18:30:57.109Z,98360.05
2023-05-18T18:33:26.076Z,98369.40
2023-05-18T18:35:54.082Z,98369.97
2023-05-18T18:38:21.199Z,98369.88
2023-05-18T18:40:48.051Z,98372.48
2023-05-18T18:43:14.923Z,98375.26
2023-05-18T18:45:41.984Z,98373.98
2023-05-18T18:48:09.131Z,98374.20
2023-05-18T18:50:36.113Z,98376.29
2023-05-18T18:53:02.929Z,98378.98
2023-05-18T18:55:30.062Z,98374.88
2023-05-18T18:57:59.568Z,98374.47
2023-05-18T19:00:26.738Z,98382.59
2023-05-18T19:02:53.670Z,98381.70
2023-05-18T19:05:23.357Z,98380.73
2023-05-18T19:07:55.093Z,98384.50
2023-05-18T19:10:22.974Z,98383.45
2023-05-18T19:12:49.967Z,98387.58
2023-05-18T19:15:17.078Z,98387.46
2023-05-18T19:17:45.847Z,98388.61
2023-05-18T19:20:12.803Z,98394.15
2023-05-18T19:22:40.470Z,98389.40
2023-05-18T19:25:07.727Z,98390.19
2023-05-18T19:27:34.593Z,98394.48
2023-05-18T19:30:04.061Z,98396.48
2023-05-18T19:32:31.776Z,98394.70
2023-05-18T19:34:58.662Z,98394.04
2023-05-18T19:37:25.464Z,98398.89
2023-05-18T19:39:52.348Z,98393.45
2023-05-18T19:42:19.128Z,98398.58
2023-05-18T19:44:45.905Z,98406.17
2023-05-18T19:47:12.706Z,98408.13
2023-05-18T19:49:39.494Z,98403.78
2023-05-18T19:52:08.401Z,98404.48
2023-05-18T19:54:36.191Z,98403.12
2023-05-18T19:57:03.634Z,98408.36
2023-05-18T19:59:30.433Z,98410.79
2023-05-18T20:02:00.564Z,98412.58
2023-05-18T20:04:28.483Z,98411.77
2023-05-18T20:06:59.604Z,98408.14
2023-05-18T20:09:27.599Z,98408.36
2023-05-18T20:11:56.210Z,98410.63
2023-05-18T20:14:23.778Z,98405.36
2023-05-18T20:16:52.312Z,98406.39
2023-05-18T20:19:19.579Z,98409.33
2023-05-18T20:21:50.060Z,98413.88
2023-05-18T20:24:16.833Z,98413.22
2023-05-18T20:26:43.881Z,98410.19
2023-05-18T20:29:10.991Z,98410.43
2023-05-18T20:31:37.955Z,98410.93
2023-05-18T20:34:06.342Z,98410.16
2023-05-18T20:36:33.259Z,98406.44
2023-05-18T20:39:00.277Z,98403.58
2023-05-18T20:41:28.496Z,98409.04
2023-05-18T20:43:55.955Z,98419.13
2023-05-18T20:46:24.822Z,98416.38
2023-05-18T20:48:55.433Z,98411.78
2023-05-18T20:51:23.462Z,98418.14
2023-05-18T20:53:50.771Z,98419.05
2023-05-18T20:56:18.271Z,98416.34
2023-05-18T20:58:48.562Z,98414.79
2023-05-18T21:01:19.034Z,98410.43
2023-05-18T21:03:47.960Z,98410.79
2023-05-18T21:06:14.932Z,98406.95
2023-05-18T21:08:42.506Z,98406.77
2023-05-18T21:11:09.973Z,98403.52
2023-05-18T21:13:37.277Z,98405.84
2023-05-18T21:16:06.867Z,98406.63
2023-05-18T21:18:34.788Z,98411.14
2023-05-18T21:21:02.217Z,98409.23
2023-05-18T21:23:29.083Z,98414.92
2023-05-18T21:25:56.882Z,98417.02
2023-05-18T21:28:26.579Z,98418.41
2023-05-18T21:30:54.187Z,98413.81
2023-05-18T21:33:21.539Z,98411.14
2023-05-18T21:35:48.470Z,98406.13
2023-05-18T21:38:17.043Z,98416.09
2023-05-18T21:40:44.343Z,98420.99
2023-05-18T21:43:11.283Z,98419.94
2023-05-18T21:45:38.843Z,98414.64
2023-05-18T21:48:06.128Z,98417.84
2023-05-18T21:50:35.153Z,98416.55
2023-05-18T21:53:03.443Z,98412.73
2023-05-18T21:55:31.410Z,98411.48
2023-05-18T21:57:58.213Z,98415.45
2023-05-18T22:00:25.075Z,98418.36
2023-05-18T22:02:52.620Z,98420.60
2023-05-18T22:05:19.478Z,98427.09
2023-05-18T22:07:46.442Z,98427.66
2023-05-18T22:10:13.453Z,98430.29
2023-05-18T22:13:46.303Z,98424.63
2023-05-18T22:16:13.090Z,98423.68
2023-05-18T22:18:39.927Z,98421.29
2023-05-18T22:21:06.867Z,98421.52
2023-05-18T22:23:33.796Z,98418.07
2023-05-18T22:26:00.580Z,98417.09
2023-05-18T22:28:27.468Z,98418.94
2023-05-18T22:30:54.324Z,98420.17
2023-05-18T22:33:21.399Z,98423.45
2023-05-18T22:35:48.380Z,98423.89
2023-05-18T22:38:15.792Z,98426.35
2023-05-18T22:40:43.091Z,98422.23
2023-05-18T22:43:09.948Z,98422.23
2023-05-18T22:45:36.852Z,98422.67
2023-05-18T22:48:04.219Z,98425.02
2023-05-18T22:50:31.268Z,98426.30
2023-05-18T22:52:58.910Z,98421.65
2023-05-18T22:55:25.804Z,98418.89
2023-05-18T22:57:52.712Z,98414.60
2023-05-18T23:00:19.790Z,98413.33
2023-05-18T23:02:46.691Z,98415.46
2023-05-18T23:05:13.792Z,98418.69
2023-05-18T23:07:41.926Z,98415.11
2023-05-18T23:10:11.334Z,98413.30
2023-05-18T23:12:38.470Z,98412.69
2023-05-18T23:15:06.032Z,98415.48
2023-05-18T23:17:33.419Z,98412.27
2023-05-18T23:20:02.966Z,98408.71
2023-05-18T23:22:29.708Z,98408.52
2023-05-18T23:24:56.499Z,98406.45
2023-05-18T23:27:23.272Z,98405.44
2023-05-18T23:29:50.044Z,98406.49
2023-05-18T23:32:16.824Z,98407.69
2023-05-18T23:34:44.471Z,98405.27
2023-05-18T23:37:11.500Z,98402.69
2023-05-18T23:39:40.881Z,98405.55
2023-05-18T23:42:08.255Z,98404.37
2023-05-18T23:44:35.450Z,98403.48
2023-05-18T23:47:02.501Z,98406.23
2023-05-18T23:49:29.923Z,98402.00
2023-05-18T23:51:59.152Z,98399.54
2023-05-18T23:54:26.141Z,98399.63
2023-05-18T23:56:53.185Z,98397.20
2023-05-18T23:59:20.133Z,98396.88
